createdAt,value
2019-04-25T00:01:26.743Z,21.70
2019-04-25T00:04:05.896Z,22.10
2019-04-25T00:06:44.006Z,21.80
2019-04-25T00:09:23.620Z,22.00
2019-04-25T00:12:02.284Z,22.20
2019-04-25T00:14:44.725Z,22.10
2019-04-25T00:17:22.498Z,22.10
2019-04-25T00:20:01.804Z,22.30
2019-04-25T00:22:47.171Z,22.30
2019-04-25T00:25:52.800Z,22.40
2019-04-25T00:28:31.545Z,22.50
2019-04-25T00:31:09.767Z,22.70
2019-04-25T00:33:49.498Z,22.80
2019-04-25T00:36:31.764Z,22.90
2019-04-25T00:52:12.238Z,23.40
2019-04-25T00:54:50.432Z,23.60
2019-04-25T00:57:32.059Z,23.80
2019-04-25T01:00:41.655Z,23.70
2019-04-25T01:03:26.730Z,23.60
2019-04-25T01:06:06.115Z,23.90
2019-04-25T01:08:45.858Z,23.80
2019-04-25T01:11:23.664Z,23.90
2019-04-25T01:14:03.267Z,23.90
2019-04-25T01:16:42.385Z,24.00
2019-04-25T01:19:19.875Z,24.00
2019-04-25T01:21:57.430Z,24.20
2019-04-25T01:24:35.040Z,24.50
2019-04-25T01:29:54.172Z,24.60
2019-04-25T01:32:36.136Z,24.40
2019-04-25T01:35:33.463Z,24.70
2019-04-25T01:38:26.818Z,24.70
2019-04-25T01:41:14.577Z,25.00
2019-04-25T01:47:01.866Z,25.00
2019-04-25T01:49:43.894Z,25.20
2019-04-25T01:57:37.931Z,25.20
2019-04-25T02:00:18.418Z,25.50
2019-04-25T02:02:56.757Z,25.80
2019-04-25T02:08:09.314Z,25.70
2019-04-25T02:10:52.328Z,25.70
2019-04-25T02:13:30.483Z,25.80
2019-04-25T02:21:23.477Z,26.10
2019-04-25T02:24:00.700Z,26.20
2019-04-25T02:26:38.223Z,26.20
2019-04-25T02:29:17.720Z,26.20
2019-04-25T02:32:00.105Z,26.30
2019-04-25T02:34:37.550Z,26.50
2019-04-25T02:37:18.888Z,26.50
2019-04-25T02:39:58.860Z,26.70
2019-04-25T02:42:36.654Z,26.80
2019-04-25T02:45:48.391Z,26.80
2019-04-25T02:48:45.510Z,26.60
2019-04-25T02:51:45.092Z,27.10
2019-04-25T02:54:24.553Z,27.10
2019-04-25T02:59:38.980Z,27.90
2019-04-25T03:02:16.616Z,27.20
2019-04-25T03:04:54.533Z,27.60
2019-04-25T03:07:35.253Z,27.80
2019-04-25T03:10:16.904Z,27.70
2019-04-25T03:12:58.459Z,27.90
2019-04-25T03:15:38.589Z,28.00
2019-04-25T03:18:21.609Z,28.10
2019-04-25T03:21:16.981Z,28.10
2019-04-25T03:23:54.840Z,28.30
2019-04-25T03:26:39.862Z,28.40
2019-04-25T03:29:13.636Z,28.20
2019-04-25T03:31:55.629Z,27.90
2019-04-25T03:34:34.913Z,27.80
2019-04-25T03:37:11.485Z,27.80
2019-04-25T03:39:48.926Z,27.80
2019-04-25T03:47:38.826Z,27.50
2019-04-25T03:52:51.809Z,27.60
2019-04-25T03:55:29.267Z,27.60
2019-04-25T03:58:10.916Z,27.60
2019-04-25T04:00:54.556Z,27.60
2019-04-25T04:03:33.937Z,27.70
2019-04-25T04:06:11.658Z,27.90
2019-04-25T04:08:51.047Z,28.00
2019-04-25T04:11:30.324Z,28.10
2019-04-25T04:14:08.231Z,28.20
2019-04-25T04:17:05.064Z,28.40
2019-04-25T04:19:49.732Z,28.00
2019-04-25T04:25:13.621Z,28.70
2019-04-25T04:27:50.953Z,28.80
2019-04-25T04:30:28.690Z,28.50
2019-04-25T04:33:06.954Z,28.50
2019-04-25T04:44:19.788Z,28.70
2019-04-25T04:47:00.521Z,28.80
2019-04-25T04:49:41.460Z,28.70
2019-04-25T04:55:06.257Z,29.50
2019-04-25T05:00:15.586Z,29.20
2019-04-25T05:06:25.898Z,29.20
2019-04-25T05:09:51.001Z,29.10
2019-04-25T05:13:16.817Z,29.20
2019-04-25T05:16:43.135Z,30.00
2019-04-25T05:20:08.287Z,30.00
2019-04-25T05:23:34.234Z,30.70
2019-04-25T05:30:06.140Z,30.00
2019-04-25T05:33:31.578Z,29.90
2019-04-25T05:36:56.630Z,30.00
2019-04-25T05:40:22.101Z,29.80
2019-04-25T05:46:54.087Z,29.60
2019-04-25T05:50:19.921Z,29.60
2019-04-25T05:53:47.066Z,29.70
2019-04-25T05:57:10.984Z,29.70
2019-04-25T05:59:54.999Z,30.00
2019-04-25T06:02:34.025Z,29.80
2019-04-25T06:05:13.078Z,29.70
2019-04-25T06:07:50.365Z,29.80
2019-04-25T06:10:45.133Z,29.80
2019-04-25T06:13:29.024Z,29.70
2019-04-25T06:16:10.591Z,29.70
2019-04-25T06:19:13.946Z,29.70
2019-04-25T06:21:49.305Z,29.60
2019-04-25T06:24:37.645Z,29.60
2019-04-25T06:27:33.656Z,29.50
2019-04-25T06:30:20.966Z,29.50
2019-04-25T06:35:35.854Z,28.70
2019-04-25T06:38:13.485Z,28.90
2019-04-25T06:40:51.392Z,28.70
2019-04-25T06:43:33.989Z,28.60
2019-04-25T06:46:26.834Z,28.40
2019-04-25T06:54:46.832Z,27.40
2019-04-25T07:07:55.557Z,25.80
2019-04-25T07:10:33.888Z,25.80
2019-04-25T07:13:15.336Z,25.10
2019-04-25T07:15:55.236Z,25.60
2019-04-25T07:29:28.478Z,25.30
2019-04-25T07:35:03.625Z,25.00
2019-04-25T07:42:53.667Z,24.90
2019-04-25T07:45:31.245Z,24.70
2019-04-25T07:48:08.761Z,24.60
2019-04-25T07:50:46.484Z,24.80
2019-04-25T07:55:58.828Z,25.50
2019-04-25T07:58:50.493Z,24.40
2019-04-25T08:01:25.755Z,24.40
2019-04-25T08:04:03.551Z,24.90
2019-04-25T08:11:54.762Z,24.20
2019-04-25T08:14:56.151Z,24.60
2019-04-25T08:17:49.631Z,24.30
2019-04-25T08:23:04.266Z,24.40
2019-04-25T08:25:43.905Z,24.10
2019-04-25T08:33:35.520Z,24.50
2019-04-25T08:36:13.693Z,24.50
2019-04-25T08:44:02.148Z,24.40
2019-04-25T08:49:26.853Z,23.60
2019-04-25T08:55:04.326Z,24.20
2019-04-25T08:58:08.848Z,24.40
2019-04-25T09:06:35.768Z,24.00
2019-04-25T09:09:13.751Z,23.70
2019-04-25T09:22:15.363Z,23.90
2019-04-25T09:24:55.153Z,24.30
2019-04-25T09:30:14.207Z,24.20
2019-04-25T09:32:50.817Z,23.80
2019-04-25T09:35:28.346Z,23.70
2019-04-25T09:38:05.801Z,23.70
2019-04-25T09:40:44.477Z,24.20
2019-04-25T09:43:23.504Z,23.70
2019-04-25T09:46:18.795Z,23.30
2019-04-25T09:55:03.574Z,23.20
2019-04-25T09:57:58.546Z,23.30
2019-04-25T10:00:40.404Z,23.70
2019-04-25T10:03:19.470Z,23.20
2019-04-25T10:08:34.314Z,23.50
2019-04-25T10:11:12.048Z,23.20
2019-04-25T10:13:53.508Z,23.00
2019-04-25T10:16:31.109Z,23.50
2019-04-25T10:19:08.847Z,23.20
2019-04-25T10:24:27.370Z,23.00
2019-04-25T10:27:11.223Z,23.00
2019-04-25T10:29:53.597Z,23.00
2019-04-25T10:32:29.205Z,22.90
2019-04-25T10:37:42.057Z,23.60
2019-04-25T10:40:23.420Z,23.10
2019-04-25T10:45:40.741Z,23.20
2019-04-25T10:48:19.678Z,22.80
2019-04-25T10:53:35.776Z,23.80
2019-04-25T10:56:14.180Z,22.80
2019-04-25T10:58:54.929Z,23.30
2019-04-25T11:01:34.379Z,23.00
2019-04-25T11:04:18.861Z,23.90
2019-04-25T11:09:36.884Z,23.00
2019-04-25T11:12:20.566Z,23.10
2019-04-25T11:14:58.322Z,23.30
2019-04-25T11:17:38.061Z,23.30
2019-04-25T11:20:27.572Z,22.70
2019-04-25T11:28:21.322Z,22.60
2019-04-25T11:31:02.050Z,22.50
2019-04-25T11:33:45.828Z,22.60
2019-04-25T11:36:24.776Z,22.20
2019-04-25T11:39:23.995Z,22.80
2019-04-25T11:47:14.450Z,22.30
2019-04-25T11:49:51.897Z,22.70
2019-04-25T11:52:33.496Z,22.10
2019-04-25T11:55:14.326Z,22.00
2019-04-25T12:00:30.075Z,21.80
2019-04-25T12:03:10.295Z,22.20
2019-04-25T12:11:05.935Z,21.80
2019-04-25T12:13:45.996Z,22.40
2019-04-25T12:16:24.500Z,22.10
2019-04-25T12:19:04.781Z,21.60
2019-04-25T12:21:42.320Z,21.60
2019-04-25T12:24:19.796Z,21.90
2019-04-25T12:29:33.655Z,22.30
2019-04-25T12:32:11.771Z,22.40
2019-04-25T12:34:49.508Z,22.10
2019-04-25T12:37:28.815Z,21.90
2019-04-25T12:45:27.912Z,21.70
2019-04-25T12:48:07.590Z,22.00
2019-04-25T12:50:46.241Z,22.10
2019-04-25T12:53:26.175Z,21.80
2019-04-25T12:58:40.633Z,21.70
2019-04-25T13:01:18.892Z,22.00
2019-04-25T13:06:34.554Z,21.80
2019-04-25T13:11:50.017Z,22.40
2019-04-25T13:14:29.684Z,22.00
2019-04-25T13:19:47.587Z,21.50
2019-04-25T13:22:26.906Z,21.60
2019-04-25T13:25:06.483Z,21.60
2019-04-25T13:27:55.112Z,21.70
2019-04-25T13:30:59.628Z,21.70
2019-04-25T13:33:57.295Z,21.70
2019-04-25T13:36:35.143Z,21.60
2019-04-25T13:39:21.441Z,21.70
2019-04-25T13:42:00.698Z,21.70
2019-04-25T13:44:37.464Z,21.70
2019-04-25T13:47:16.511Z,21.60
2019-04-25T13:49:55.614Z,21.60
2019-04-25T13:52:35.748Z,21.50
2019-04-25T13:55:15.235Z,21.50
2019-04-25T13:57:53.098Z,21.50
2019-04-25T14:00:33.343Z,21.40
2019-04-25T14:03:13.292Z,21.50
2019-04-25T14:05:53.870Z,21.40
2019-04-25T14:08:31.494Z,21.80
2019-04-25T14:11:09.273Z,21.40
2019-04-25T14:13:46.699Z,21.30
2019-04-25T14:16:44.699Z,21.90
2019-04-25T14:19:54.768Z,21.10
2019-04-25T14:22:32.546Z,21.30
2019-04-25T14:25:10.353Z,21.40
2019-04-25T14:27:51.660Z,21.30
2019-04-25T14:30:34.238Z,21.30
2019-04-25T14:33:13.451Z,21.30
2019-04-25T14:35:54.905Z,21.20
2019-04-25T14:38:33.783Z,21.10
2019-04-25T14:41:12.938Z,21.00
2019-04-25T14:43:50.369Z,20.90
2019-04-25T14:46:30.236Z,20.90
2019-04-25T14:49:10.987Z,21.00
2019-04-25T14:51:48.418Z,20.90
2019-04-25T14:54:36.069Z,21.00
2019-04-25T14:57:35.086Z,20.90
2019-04-25T15:00:19.616Z,20.90
2019-04-25T15:03:00.022Z,20.90
2019-04-25T15:05:37.475Z,20.60
2019-04-25T15:08:18.860Z,21.00
2019-04-25T15:10:59.535Z,21.00
2019-04-25T15:13:37.054Z,20.90
2019-04-25T15:16:16.535Z,20.90
2019-04-25T15:18:54.085Z,21.00
2019-04-25T15:21:33.925Z,20.80
2019-04-25T15:24:11.628Z,20.70
2019-04-25T15:26:50.935Z,20.70
2019-04-25T15:29:31.845Z,20.70
2019-04-25T15:32:11.771Z,20.70
2019-04-25T15:34:55.962Z,20.60
2019-04-25T15:37:43.870Z,20.60
2019-04-25T15:40:41.065Z,20.50
2019-04-25T15:43:27.649Z,20.50
2019-04-25T15:46:11.298Z,20.50
2019-04-25T15:48:48.747Z,21.00
2019-04-25T15:51:27.513Z,20.40
2019-04-25T15:54:05.227Z,20.50
2019-04-25T15:56:42.663Z,20.50
2019-04-25T15:59:22.338Z,20.60
2019-04-25T16:02:07.861Z,20.40
2019-04-25T16:04:40.719Z,20.70
2019-04-25T16:07:19.052Z,20.90
2019-04-25T16:09:57.747Z,20.50
2019-04-25T16:12:37.354Z,20.70
2019-04-25T16:15:19.979Z,20.40
2019-04-25T16:17:57.569Z,20.70
2019-04-25T16:20:36.630Z,20.50
2019-04-25T18:13:54.127Z,20.10
2019-04-25T18:16:40.234Z,19.70
2019-04-25T18:22:20.606Z,19.80
2019-04-25T18:25:32.118Z,19.70
2019-04-25T18:28:35.877Z,20.20
2019-04-25T18:31:13.516Z,20.00
2019-04-25T18:33:52.051Z,19.30
2019-04-25T18:36:45.073Z,19.60
2019-04-25T18:39:30.497Z,19.90
2019-04-25T18:42:27.140Z,19.00
2019-04-25T18:45:04.959Z,19.50
2019-04-25T18:47:44.580Z,19.60
2019-04-25T18:50:23.381Z,19.60
2019-04-25T18:53:23.980Z,19.60
2019-04-25T18:56:10.859Z,19.60
2019-04-25T18:59:14.817Z,19.50
2019-04-25T19:02:23.085Z,19.50
2019-04-25T19:05:17.859Z,19.50
2019-04-25T19:07:55.442Z,19.50
2019-04-25T19:10:32.866Z,19.50
2019-04-25T19:13:13.829Z,19.30
2019-04-25T19:15:51.483Z,19.70
2019-04-25T19:18:34.862Z,19.80
2019-04-25T19:21:12.731Z,19.60
2019-04-25T19:23:54.346Z,19.60
2019-04-25T19:26:32.961Z,19.60
2019-04-25T19:29:10.717Z,19.60
2019-04-25T19:34:23.677Z,19.70
2019-04-25T19:37:04.702Z,19.40
2019-04-25T19:39:43.647Z,19.50
2019-04-25T19:42:26.986Z,19.70
2019-04-25T19:45:04.564Z,19.10
2019-04-25T19:47:42.912Z,19.30
2019-04-25T19:50:22.019Z,19.40
2019-04-25T19:55:34.332Z,19.00
2019-04-25T19:58:11.729Z,19.30
2019-04-25T20:00:50.929Z,19.00
2019-04-25T20:03:54.169Z,19.10
2019-04-25T20:06:47.457Z,19.40
2019-04-25T20:09:44.795Z,19.10
2019-04-25T20:12:24.044Z,19.50
2019-04-25T20:15:01.558Z,19.10
2019-04-25T20:17:41.157Z,19.40
2019-04-25T20:20:18.867Z,19.30
2019-04-25T20:22:59.557Z,19.20
2019-04-25T20:25:38.653Z,19.20
2019-04-25T20:28:18.392Z,19.20
2019-04-25T20:30:57.222Z,19.20
2019-04-25T20:33:34.678Z,19.20
2019-04-25T20:38:53.310Z,19.30
2019-04-25T20:41:30.904Z,19.20
2019-04-25T20:44:08.571Z,19.30
2019-04-25T20:51:58.629Z,19.20
2019-04-25T20:54:37.272Z,19.20
2019-04-25T20:57:16.627Z,19.10
2019-04-25T20:59:58.059Z,19.10
2019-04-25T21:02:35.518Z,19.10
2019-04-25T21:05:13.268Z,19.10
2019-04-25T21:07:51.245Z,19.10
2019-04-25T21:10:30.587Z,19.10
2019-04-25T21:13:10.291Z,19.70
2019-04-25T21:18:57.820Z,19.10
2019-04-25T21:21:36.579Z,19.20
2019-04-25T21:24:14.007Z,19.30
2019-04-25T21:26:52.504Z,19.30
2019-04-25T21:29:31.690Z,19.40
2019-04-25T21:32:09.128Z,19.40
2019-04-25T21:34:46.554Z,19.40
2019-04-25T21:40:18.535Z,19.40
2019-04-25T21:43:03.166Z,19.60
2019-04-25T21:48:17.396Z,19.70
2019-04-25T21:50:55.095Z,19.70
2019-04-25T21:53:33.793Z,20.00
2019-04-25T21:56:11.477Z,19.50
2019-04-25T22:01:30.789Z,19.90
2019-04-25T22:04:08.493Z,19.70
2019-04-25T22:06:47.761Z,19.40
2019-04-25T22:09:26.417Z,19.40
2019-04-25T22:12:05.303Z,19.60
2019-04-25T22:14:42.942Z,19.40
2019-04-25T22:19:57.111Z,20.60
2019-04-25T22:22:36.811Z,19.80
2019-04-25T22:25:16.264Z,19.60
2019-04-25T22:27:58.714Z,20.60
2019-04-25T22:30:36.665Z,20.00
2019-04-25T22:33:34.568Z,20.10
2019-04-25T22:36:28.915Z,20.30
2019-04-25T22:44:28.104Z,20.40
2019-04-25T22:52:18.529Z,20.40
2019-04-25T22:54:59.906Z,20.70
2019-04-25T22:57:38.326Z,20.80
2019-04-25T23:02:59.418Z,21.10
2019-04-25T23:08:31.467Z,21.50
2019-04-25T23:11:08.883Z,21.00
2019-04-25T23:13:46.563Z,21.70
2019-04-25T23:19:01.218Z,21.90
2019-04-25T23:21:38.657Z,21.40
2019-04-25T23:24:21.048Z,21.40
2019-04-25T23:27:10.423Z,22.20
2019-04-25T23:32:26.484Z,22.20
2019-04-25T23:35:05.687Z,22.20
2019-04-25T23:37:45.077Z,22.20
2019-04-25T23:40:23.893Z,22.50
2019-04-25T23:43:05.208Z,22.50
2019-04-25T23:48:19.345Z,22.90
2019-04-25T23:53:31.653Z,23.00
